sensor_id;sensor_type;location;lat;lon;timestamp;P1;durP1;ratioP1;P2;durP2;ratioP2
7211;SDS011;3647;48.792;9.802;2023-02-28T05:28:52;8.83;;;7.13;;
7211;SDS011;3647;48.792;9.802;2023-02-28T05:31:19;8.73;;;7.40;;
7211;SDS011;3647;48.792;9.802;2023-02-28T05:33:47;8.60;;;7.53;;
7211;SDS011;3647;48.792;9.802;2023-02-28T05:36:15;10.23;;;8.00;;
7211;SDS011;3647;48.792;9.802;2023-02-28T05:38:42;9.07;;;7.37;;
7211;SDS011;3647;48.792;9.802;2023-02-28T05:41:09;10.40;;;7.27;;
7211;SDS011;3647;48.792;9.802;2023-02-28T05:43:37;7.17;;;6.23;;
7211;SDS011;3647;48.792;9.802;2023-02-28T05:46:06;10.60;;;8.00;;
7211;SDS011;3647;48.792;9.802;2023-02-28T05:48:34;8.93;;;7.60;;
7211;SDS011;3647;48.792;9.802;2023-02-28T05:51:03;13.43;;;7.60;;
7211;SDS011;3647;48.792;9.802;2023-02-28T05:53:31;11.80;;;8.40;;
7211;SDS011;3647;48.792;9.802;2023-02-28T05:55:58;10.10;;;7.73;;
7211;SDS011;3647;48.792;9.802;2023-02-28T05:58:25;10.87;;;8.07;;
7211;SDS011;3647;48.792;9.802;2023-02-28T06:00:55;9.00;;;7.20;;
7211;SDS011;3647;48.792;9.802;2023-02-28T06:03:24;10.53;;;8.40;;
7211;SDS011;3647;48.792;9.802;2023-02-28T06:05:51;9.33;;;7.37;;
7211;SDS011;3647;48.792;9.802;2023-02-28T06:08:18;10.53;;;8.20;;
7211;SDS011;3647;48.792;9.802;2023-02-28T13:39:59;10.10;;;7.77;;
7211;SDS011;3647;48.792;9.802;2023-02-28T13:42:53;12.93;;;10.17;;
7211;SDS011;3647;48.792;9.802;2023-02-28T13:45:22;14.53;;;8.63;;
7211;SDS011;3647;48.792;9.802;2023-02-28T13:47:56;12.50;;;8.67;;
7211;SDS011;3647;48.792;9.802;2023-02-28T13:50:30;10.70;;;9.27;;
7211;SDS011;3647;48.792;9.802;2023-02-28T13:56:09;13.87;;;9.00;;
7211;SDS011;3647;48.792;9.802;2023-02-28T13:59:12;11.03;;;7.53;;
7211;SDS011;3647;48.792;9.802;2023-02-28T14:01:52;14.27;;;9.03;;
7211;SDS011;3647;48.792;9.802;2023-02-28T14:04:50;12.90;;;9.87;;
7211;SDS011;3647;48.792;9.802;2023-02-28T14:07:26;11.30;;;8.43;;
7211;SDS011;3647;48.792;9.802;2023-02-28T14:09:57;11.30;;;8.63;;
7211;SDS011;3647;48.792;9.802;2023-02-28T14:18:20;13.10;;;9.43;;
7211;SDS011;3647;48.792;9.802;2023-02-28T14:20:49;12.00;;;9.20;;
7211;SDS011;3647;48.792;9.802;2023-02-28T14:23:25;13.50;;;9.17;;
7211;SDS011;3647;48.792;9.802;2023-02-28T14:26:10;12.70;;;9.87;;
7211;SDS011;3647;48.792;9.802;2023-02-28T14:28:51;12.83;;;9.60;;
7211;SDS011;3647;48.792;9.802;2023-02-28T14:31:35;12.17;;;8.87;;
7211;SDS011;3647;48.792;9.802;2023-02-28T14:34:13;12.43;;;8.13;;
7211;SDS011;3647;48.792;9.802;2023-02-28T14:36:52;15.43;;;10.00;;
7211;SDS011;3647;48.792;9.802;2023-02-28T14:39:20;13.03;;;9.70;;
7211;SDS011;3647;48.792;9.802;2023-02-28T14:41:49;11.67;;;8.03;;
7211;SDS011;3647;48.792;9.802;2023-02-28T14:44:19;12.10;;;9.00;;
7211;SDS011;3647;48.792;9.802;2023-02-28T14:46:48;10.27;;;8.60;;
7211;SDS011;3647;48.792;9.802;2023-02-28T14:49:17;13.07;;;10.10;;
7211;SDS011;3647;48.792;9.802;2023-02-28T14:52:00;10.47;;;9.37;;
7211;SDS011;3647;48.792;9.802;2023-02-28T14:54:31;13.13;;;9.20;;
7211;SDS011;3647;48.792;9.802;2023-02-28T14:56:58;12.73;;;9.00;;
7211;SDS011;3647;48.792;9.802;2023-02-28T14:59:28;12.70;;;9.70;;
7211;SDS011;3647;48.792;9.802;2023-02-28T15:02:15;11.10;;;9.23;;
7211;SDS011;3647;48.792;9.802;2023-02-28T15:04:43;12.90;;;8.90;;
7211;SDS011;3647;48.792;9.802;2023-02-28T15:07:19;10.87;;;9.03;;
7211;SDS011;3647;48.792;9.802;2023-02-28T15:10:06;10.80;;;8.87;;
7211;SDS011;3647;48.792;9.802;2023-02-28T15:12:34;12.73;;;9.37;;
7211;SDS011;3647;48.792;9.802;2023-02-28T15:15:03;12.53;;;9.20;;
7211;SDS011;3647;48.792;9.802;2023-02-28T15:17:31;10.63;;;7.47;;
7211;SDS011;3647;48.792;9.802;2023-02-28T15:19:58;13.33;;;9.13;;
7211;SDS011;3647;48.792;9.802;2023-02-28T15:22:28;15.07;;;9.57;;
7211;SDS011;3647;48.792;9.802;2023-02-28T15:25:01;19.90;;;9.57;;
7211;SDS011;3647;48.792;9.802;2023-02-28T15:27:31;11.80;;;8.97;;
7211;SDS011;3647;48.792;9.802;2023-02-28T15:30:00;10.50;;;8.93;;
7211;SDS011;3647;48.792;9.802;2023-02-28T15:32:31;12.13;;;9.37;;
7211;SDS011;3647;48.792;9.802;2023-02-28T15:34:59;9.33;;;8.37;;
7211;SDS011;3647;48.792;9.802;2023-02-28T15:37:46;11.50;;;9.30;;
7211;SDS011;3647;48.792;9.802;2023-02-28T15:40:15;11.17;;;8.67;;
7211;SDS011;3647;48.792;9.802;2023-02-28T15:43:00;12.03;;;9.37;;
7211;SDS011;3647;48.792;9.802;2023-02-28T15:45:39;12.73;;;9.53;;
7211;SDS011;3647;48.792;9.802;2023-02-28T15:48:13;13.53;;;9.30;;
7211;SDS011;3647;48.792;9.802;2023-02-28T15:50:43;12.53;;;8.83;;
7211;SDS011;3647;48.792;9.802;2023-02-28T15:53:14;14.00;;;9.63;;
7211;SDS011;3647;48.792;9.802;2023-02-28T15:55:44;12.10;;;9.33;;
7211;SDS011;3647;48.792;9.802;2023-02-28T15:58:11;12.00;;;9.30;;
7211;SDS011;3647;48.792;9.802;2023-02-28T16:00:40;17.27;;;10.27;;
7211;SDS011;3647;48.792;9.802;2023-02-28T16:03:23;12.97;;;10.07;;
7211;SDS011;3647;48.792;9.802;2023-02-28T16:06:22;13.43;;;8.97;;
7211;SDS011;3647;48.792;9.802;2023-02-28T16:08:55;11.90;;;9.30;;
7211;SDS011;3647;48.792;9.802;2023-02-28T16:11:21;13.03;;;9.67;;
7211;SDS011;3647;48.792;9.802;2023-02-28T16:13:49;18.13;;;11.20;;
7211;SDS011;3647;48.792;9.802;2023-02-28T16:16:19;15.83;;;10.57;;
7211;SDS011;3647;48.792;9.802;2023-02-28T16:18:47;12.97;;;9.97;;
7211;SDS011;3647;48.792;9.802;2023-02-28T16:21:14;17.63;;;11.93;;
7211;SDS011;3647;48.792;9.802;2023-02-28T16:23:40;14.70;;;10.80;;
7211;SDS011;3647;48.792;9.802;2023-02-28T16:26:07;13.50;;;10.07;;
7211;SDS011;3647;48.792;9.802;2023-02-28T16:28:38;13.63;;;9.53;;
7211;SDS011;3647;48.792;9.802;2023-02-28T16:31:06;14.20;;;10.57;;
7211;SDS011;3647;48.792;9.802;2023-02-28T16:33:34;12.60;;;9.50;;
7211;SDS011;3647;48.792;9.802;2023-02-28T16:36:01;12.93;;;9.57;;
7211;SDS011;3647;48.792;9.802;2023-02-28T16:38:28;15.00;;;9.90;;
7211;SDS011;3647;48.792;9.802;2023-02-28T16:40:55;13.30;;;9.90;;
7211;SDS011;3647;48.792;9.802;2023-02-28T16:43:25;13.73;;;9.80;;
7211;SDS011;3647;48.792;9.802;2023-02-28T16:45:54;13.70;;;9.90;;
7211;SDS011;3647;48.792;9.802;2023-02-28T16:48:21;14.83;;;10.67;;
7211;SDS011;3647;48.792;9.802;2023-02-28T16:50:50;13.77;;;10.83;;
7211;SDS011;3647;48.792;9.802;2023-02-28T16:53:17;14.07;;;9.20;;
7211;SDS011;3647;48.792;9.802;2023-02-28T16:55:44;13.90;;;10.30;;
7211;SDS011;3647;48.792;9.802;2023-02-28T16:58:13;13.23;;;10.33;;
7211;SDS011;3647;48.792;9.802;2023-02-28T17:00:42;15.43;;;10.43;;
7211;SDS011;3647;48.792;9.802;2023-02-28T17:03:11;14.50;;;10.40;;
7211;SDS011;3647;48.792;9.802;2023-02-28T17:05:49;11.63;;;9.90;;
7211;SDS011;3647;48.792;9.802;2023-02-28T17:08:16;14.03;;;10.47;;
7211;SDS011;3647;48.792;9.802;2023-02-28T17:10:43;14.90;;;10.17;;
7211;SDS011;3647;48.792;9.802;2023-02-28T17:13:11;15.47;;;10.73;;
7211;SDS011;3647;48.792;9.802;2023-02-28T17:15:38;15.47;;;10.90;;
7211;SDS011;3647;48.792;9.802;2023-02-28T17:18:05;13.43;;;10.77;;
7211;SDS011;3647;48.792;9.802;2023-02-28T17:20:35;13.37;;;10.57;;
7211;SDS011;3647;48.792;9.802;2023-02-28T17:23:04;14.40;;;11.20;;
7211;SDS011;3647;48.792;9.802;2023-02-28T17:25:30;15.33;;;11.00;;
7211;SDS011;3647;48.792;9.802;2023-02-28T17:27:57;14.20;;;10.47;;
7211;SDS011;3647;48.792;9.802;2023-02-28T17:30:25;15.70;;;11.73;;
7211;SDS011;3647;48.792;9.802;2023-02-28T17:32:53;14.80;;;11.13;;
7211;SDS011;3647;48.792;9.802;2023-02-28T17:35:20;12.90;;;11.17;;
7211;SDS011;3647;48.792;9.802;2023-02-28T17:37:47;15.13;;;11.40;;
7211;SDS011;3647;48.792;9.802;2023-02-28T17:40:16;17.00;;;11.57;;
7211;SDS011;3647;48.792;9.802;2023-02-28T17:42:44;16.20;;;11.30;;
7211;SDS011;3647;48.792;9.802;2023-02-28T17:45:12;17.77;;;11.20;;
7211;SDS011;3647;48.792;9.802;2023-02-28T17:47:46;14.17;;;11.20;;
7211;SDS011;3647;48.792;9.802;2023-02-28T17:50:15;19.53;;;12.27;;
7211;SDS011;3647;48.792;9.802;2023-02-28T17:52:43;18.30;;;11.10;;
7211;SDS011;3647;48.792;9.802;2023-02-28T17:55:10;15.47;;;11.77;;
7211;SDS011;3647;48.792;9.802;2023-02-28T17:57:38;14.67;;;11.00;;
7211;SDS011;3647;48.792;9.802;2023-02-28T18:00:07;14.87;;;11.10;;
7211;SDS011;3647;48.792;9.802;2023-02-28T18:02:37;16.90;;;10.77;;
7211;SDS011;3647;48.792;9.802;2023-02-28T18:05:04;18.37;;;11.17;;
7211;SDS011;3647;48.792;9.802;2023-02-28T18:07:32;16.47;;;11.13;;
7211;SDS011;3647;48.792;9.802;2023-02-28T18:09:59;16.87;;;12.23;;
7211;SDS011;3647;48.792;9.802;2023-02-28T18:12:26;14.93;;;11.77;;
7211;SDS011;3647;48.792;9.802;2023-02-28T18:14:54;17.13;;;12.20;;
7211;SDS011;3647;48.792;9.802;2023-02-28T18:17:21;19.10;;;12.00;;
7211;SDS011;3647;48.792;9.802;2023-02-28T18:19:48;17.00;;;11.83;;
7211;SDS011;3647;48.792;9.802;2023-02-28T18:22:14;17.17;;;12.37;;
7211;SDS011;3647;48.792;9.802;2023-02-28T18:24:41;18.23;;;12.23;;
7211;SDS011;3647;48.792;9.802;2023-02-28T18:27:08;19.03;;;12.50;;
7211;SDS011;3647;48.792;9.802;2023-02-28T18:29:36;19.97;;;12.07;;
7211;SDS011;3647;48.792;9.802;2023-02-28T18:32:05;23.30;;;12.53;;
7211;SDS011;3647;48.792;9.802;2023-02-28T18:34:32;18.17;;;12.63;;
7211;SDS011;3647;48.792;9.802;2023-02-28T18:36:58;15.07;;;10.27;;
7211;SDS011;3647;48.792;9.802;2023-02-28T18:39:25;14.93;;;11.67;;
7211;SDS011;3647;48.792;9.802;2023-02-28T18:41:52;18.60;;;12.50;;
7211;SDS011;3647;48.792;9.802;2023-02-28T18:44:19;19.47;;;12.97;;
7211;SDS011;3647;48.792;9.802;2023-02-28T18:46:46;17.57;;;12.13;;
7211;SDS011;3647;48.792;9.802;2023-02-28T18:49:14;17.33;;;11.97;;
7211;SDS011;3647;48.792;9.802;2023-02-28T18:51:41;18.37;;;13.13;;
7211;SDS011;3647;48.792;9.802;2023-02-28T18:54:09;21.20;;;13.77;;
7211;SDS011;3647;48.792;9.802;2023-02-28T18:56:36;20.50;;;13.00;;
7211;SDS011;3647;48.792;9.802;2023-02-28T18:59:03;22.47;;;14.27;;
7211;SDS011;3647;48.792;9.802;2023-02-28T19:01:32;20.90;;;13.17;;
7211;SDS011;3647;48.792;9.802;2023-02-28T19:03:59;21.80;;;13.73;;
7211;SDS011;3647;48.792;9.802;2023-02-28T19:06:28;19.23;;;13.27;;
7211;SDS011;3647;48.792;9.802;2023-02-28T19:08:57;25.60;;;15.17;;
7211;SDS011;3647;48.792;9.802;2023-02-28T19:11:25;20.03;;;13.90;;
7211;SDS011;3647;48.792;9.802;2023-02-28T19:13:52;18.10;;;12.33;;
7211;SDS011;3647;48.792;9.802;2023-02-28T19:16:20;16.90;;;12.60;;
7211;SDS011;3647;48.792;9.802;2023-02-28T19:18:47;20.50;;;13.60;;
7211;SDS011;3647;48.792;9.802;2023-02-28T19:21:15;21.90;;;14.43;;
7211;SDS011;3647;48.792;9.802;2023-02-28T19:23:44;22.33;;;13.67;;
7211;SDS011;3647;48.792;9.802;2023-02-28T19:26:12;18.97;;;11.83;;
7211;SDS011;3647;48.792;9.802;2023-02-28T19:28:39;21.07;;;12.80;;
7211;SDS011;3647;48.792;9.802;2023-02-28T19:31:10;19.93;;;13.17;;
7211;SDS011;3647;48.792;9.802;2023-02-28T19:33:38;18.60;;;12.77;;
7211;SDS011;3647;48.792;9.802;2023-02-28T19:36:05;20.03;;;12.90;;
7211;SDS011;3647;48.792;9.802;2023-02-28T19:38:32;19.07;;;13.03;;
7211;SDS011;3647;48.792;9.802;2023-02-28T19:41:00;20.83;;;13.03;;
7211;SDS011;3647;48.792;9.802;2023-02-28T19:43:28;24.03;;;14.07;;
7211;SDS011;3647;48.792;9.802;2023-02-28T19:45:54;20.93;;;14.17;;
7211;SDS011;3647;48.792;9.802;2023-02-28T19:48:21;17.27;;;13.00;;
7211;SDS011;3647;48.792;9.802;2023-02-28T19:50:50;17.73;;;13.13;;
7211;SDS011;3647;48.792;9.802;2023-02-28T19:53:21;19.07;;;13.07;;
7211;SDS011;3647;48.792;9.802;2023-02-28T19:55:48;19.33;;;12.80;;
7211;SDS011;3647;48.792;9.802;2023-02-28T19:58:17;21.63;;;14.00;;
7211;SDS011;3647;48.792;9.802;2023-02-28T20:00:44;21.47;;;13.47;;
7211;SDS011;3647;48.792;9.802;2023-02-28T20:03:11;26.40;;;16.40;;
7211;SDS011;3647;48.792;9.802;2023-02-28T20:05:37;22.27;;;14.50;;
7211;SDS011;3647;48.792;9.802;2023-02-28T20:08:04;19.57;;;13.07;;
7211;SDS011;3647;48.792;9.802;2023-02-28T20:10:31;21.13;;;14.13;;
7211;SDS011;3647;48.792;9.802;2023-02-28T20:12:58;23.10;;;15.20;;
7211;SDS011;3647;48.792;9.802;2023-02-28T20:15:26;27.23;;;14.33;;
7211;SDS011;3647;48.792;9.802;2023-02-28T20:17:54;20.93;;;13.87;;
7211;SDS011;3647;48.792;9.802;2023-02-28T20:20:23;21.57;;;14.17;;
7211;SDS011;3647;48.792;9.802;2023-02-28T20:22:52;19.13;;;12.80;;
7211;SDS011;3647;48.792;9.802;2023-02-28T20:25:18;19.00;;;13.73;;
7211;SDS011;3647;48.792;9.802;2023-02-28T20:27:45;19.90;;;13.20;;
7211;SDS011;3647;48.792;9.802;2023-02-28T20:30:12;23.17;;;13.90;;
7211;SDS011;3647;48.792;9.802;2023-02-28T20:32:40;19.50;;;14.07;;
7211;SDS011;3647;48.792;9.802;2023-02-28T20:35:08;19.53;;;13.53;;
7211;SDS011;3647;48.792;9.802;2023-02-28T20:37:35;20.60;;;13.80;;
7211;SDS011;3647;48.792;9.802;2023-02-28T20:40:02;20.90;;;14.37;;
7211;SDS011;3647;48.792;9.802;2023-02-28T20:42:30;19.20;;;14.20;;
7211;SDS011;3647;48.792;9.802;2023-02-28T20:44:57;21.67;;;14.07;;
7211;SDS011;3647;48.792;9.802;2023-02-28T20:47:23;18.87;;;13.57;;
7211;SDS011;3647;48.792;9.802;2023-02-28T20:49:51;21.80;;;13.93;;
7211;SDS011;3647;48.792;9.802;2023-02-28T20:52:18;19.57;;;14.17;;
7211;SDS011;3647;48.792;9.802;2023-02-28T20:54:45;24.70;;;15.30;;
7211;SDS011;3647;48.792;9.802;2023-02-28T20:57:12;22.60;;;14.90;;
7211;SDS011;3647;48.792;9.802;2023-02-28T20:59:39;19.70;;;12.43;;
7211;SDS011;3647;48.792;9.802;2023-02-28T21:02:06;22.37;;;15.40;;
7211;SDS011;3647;48.792;9.802;2023-02-28T21:04:33;22.57;;;14.17;;
7211;SDS011;3647;48.792;9.802;2023-02-28T21:07:01;20.03;;;13.60;;
7211;SDS011;3647;48.792;9.802;2023-02-28T21:09:28;18.20;;;13.73;;
7211;SDS011;3647;48.792;9.802;2023-02-28T21:11:55;22.70;;;15.60;;
7211;SDS011;3647;48.792;9.802;2023-02-28T21:14:22;21.77;;;13.63;;
7211;SDS011;3647;48.792;9.802;2023-02-28T21:16:49;25.30;;;14.47;;
7211;SDS011;3647;48.792;9.802;2023-02-28T21:19:16;21.50;;;13.83;;
7211;SDS011;3647;48.792;9.802;2023-02-28T21:21:43;24.87;;;13.80;;
7211;SDS011;3647;48.792;9.802;2023-02-28T21:24:14;21.80;;;14.43;;
7211;SDS011;3647;48.792;9.802;2023-02-28T21:26:42;19.87;;;14.27;;
7211;SDS011;3647;48.792;9.802;2023-02-28T21:29:11;20.73;;;13.97;;
7211;SDS011;3647;48.792;9.802;2023-02-28T21:31:38;23.03;;;14.07;;
7211;SDS011;3647;48.792;9.802;2023-02-28T21:34:06;20.63;;;14.37;;
7211;SDS011;3647;48.792;9.802;2023-02-28T21:36:35;24.30;;;15.37;;
7211;SDS011;3647;48.792;9.802;2023-02-28T21:39:05;24.27;;;15.50;;
7211;SDS011;3647;48.792;9.802;2023-02-28T21:41:35;19.50;;;15.27;;
7211;SDS011;3647;48.792;9.802;2023-02-28T21:44:02;27.40;;;16.30;;
7211;SDS011;3647;48.792;9.802;2023-02-28T21:46:29;24.27;;;15.73;;
7211;SDS011;3647;48.792;9.802;2023-02-28T21:48:56;25.07;;;16.50;;
7211;SDS011;3647;48.792;9.802;2023-02-28T21:51:24;27.10;;;17.43;;
7211;SDS011;3647;48.792;9.802;2023-02-28T21:53:52;31.87;;;18.30;;
7211;SDS011;3647;48.792;9.802;2023-02-28T21:56:20;23.83;;;17.27;;
7211;SDS011;3647;48.792;9.802;2023-02-28T21:58:49;30.77;;;17.00;;
7211;SDS011;3647;48.792;9.802;2023-02-28T22:01:24;28.90;;;16.20;;
7211;SDS011;3647;48.792;9.802;2023-02-28T22:03:52;20.23;;;14.57;;
7211;SDS011;3647;48.792;9.802;2023-02-28T22:06:20;24.67;;;15.50;;
7211;SDS011;3647;48.792;9.802;2023-02-28T22:08:50;24.47;;;16.07;;
7211;SDS011;3647;48.792;9.802;2023-02-28T22:11:19;27.87;;;17.40;;
7211;SDS011;3647;48.792;9.802;2023-02-28T22:13:47;27.83;;;17.43;;
7211;SDS011;3647;48.792;9.802;2023-02-28T22:16:18;27.23;;;18.23;;
